sensor_id;sensor_type;location;lat;lon;timestamp;P1;durP1;ratioP1;P2;durP2;ratioP2
32347;SDS011;18821;44.800;10.326;2023-04-16T00:02:19;7.63;;;3.00;;
32347;SDS011;18821;44.800;10.326;2023-04-16T00:04:45;7.82;;;3.20;;
32347;SDS011;18821;44.800;10.326;2023-04-16T00:07:11;6.93;;;3.33;;
32347;SDS011;18821;44.800;10.326;2023-04-16T00:09:37;11.50;;;3.42;;
32347;SDS011;18821;44.800;10.326;2023-04-16T00:12:03;7.20;;;2.63;;
32347;SDS011;18821;44.800;10.326;2023-04-16T00:14:30;9.75;;;3.20;;
32347;SDS011;18821;44.800;10.326;2023-04-16T00:16:56;6.47;;;3.38;;
32347;SDS011;18821;44.800;10.326;2023-04-16T00:19:22;13.00;;;3.97;;
32347;SDS011;18821;44.800;10.326;2023-04-16T00:21:48;7.25;;;3.35;;
32347;SDS011;18821;44.800;10.326;2023-04-16T00:24:13;11.02;;;3.70;;
32347;SDS011;18821;44.800;10.326;2023-04-16T00:26:40;7.88;;;3.60;;
32347;SDS011;18821;44.800;10.326;2023-04-16T00:29:08;9.40;;;3.75;;
32347;SDS011;18821;44.800;10.326;2023-04-16T00:31:35;8.15;;;3.92;;
32347;SDS011;18821;44.800;10.326;2023-04-16T00:34:02;10.18;;;3.95;;
32347;SDS011;18821;44.800;10.326;2023-04-16T00:36:28;8.23;;;3.85;;
32347;SDS011;18821;44.800;10.326;2023-04-16T00:38:54;11.93;;;3.30;;
32347;SDS011;18821;44.800;10.326;2023-04-16T00:41:21;13.82;;;4.28;;
32347;SDS011;18821;44.800;10.326;2023-04-16T00:43:47;9.48;;;4.07;;
32347;SDS011;18821;44.800;10.326;2023-04-16T00:46:14;7.68;;;3.70;;
32347;SDS011;18821;44.800;10.326;2023-04-16T00:48:41;7.03;;;4.07;;
32347;SDS011;18821;44.800;10.326;2023-04-16T00:51:09;5.60;;;3.80;;
32347;SDS011;18821;44.800;10.326;2023-04-16T00:53:35;9.88;;;4.28;;
32347;SDS011;18821;44.800;10.326;2023-04-16T00:56:03;10.10;;;4.05;;
32347;SDS011;18821;44.800;10.326;2023-04-16T00:58:30;7.63;;;3.97;;
32347;SDS011;18821;44.800;10.326;2023-04-16T01:00:57;7.03;;;4.03;;
32347;SDS011;18821;44.800;10.326;2023-04-16T01:03:25;8.20;;;4.13;;
32347;SDS011;18821;44.800;10.326;2023-04-16T01:06:07;14.23;;;4.50;;
32347;SDS011;18821;44.800;10.326;2023-04-16T01:08:34;6.32;;;4.28;;
32347;SDS011;18821;44.800;10.326;2023-04-16T01:11:00;5.82;;;4.10;;
32347;SDS011;18821;44.800;10.326;2023-04-16T01:13:27;7.47;;;4.38;;
32347;SDS011;18821;44.800;10.326;2023-04-16T01:15:53;7.25;;;3.67;;
32347;SDS011;18821;44.800;10.326;2023-04-16T01:18:20;8.55;;;3.63;;
32347;SDS011;18821;44.800;10.326;2023-04-16T01:20:47;10.57;;;3.72;;
32347;SDS011;18821;44.800;10.326;2023-04-16T01:23:17;10.55;;;3.63;;
32347;SDS011;18821;44.800;10.326;2023-04-16T01:25:43;5.38;;;3.63;;
32347;SDS011;18821;44.800;10.326;2023-04-16T01:28:10;9.52;;;3.67;;
32347;SDS011;18821;44.800;10.326;2023-04-16T01:30:35;7.78;;;3.80;;
32347;SDS011;18821;44.800;10.326;2023-04-16T01:33:10;12.10;;;4.28;;
32347;SDS011;18821;44.800;10.326;2023-04-16T01:35:37;5.57;;;3.47;;
32347;SDS011;18821;44.800;10.326;2023-04-16T01:38:04;10.80;;;4.00;;
32347;SDS011;18821;44.800;10.326;2023-04-16T01:40:32;12.80;;;4.22;;
32347;SDS011;18821;44.800;10.326;2023-04-16T01:43:01;8.90;;;4.75;;
32347;SDS011;18821;44.800;10.326;2023-04-16T01:45:27;9.57;;;4.25;;
32347;SDS011;18821;44.800;10.326;2023-04-16T01:47:55;9.18;;;4.78;;
32347;SDS011;18821;44.800;10.326;2023-04-16T01:50:21;6.80;;;3.58;;
32347;SDS011;18821;44.800;10.326;2023-04-16T01:52:48;9.02;;;4.13;;
32347;SDS011;18821;44.800;10.326;2023-04-16T01:55:13;7.45;;;3.85;;
32347;SDS011;18821;44.800;10.326;2023-04-16T01:57:40;9.65;;;3.78;;
32347;SDS011;18821;44.800;10.326;2023-04-16T02:00:06;14.73;;;4.43;;
32347;SDS011;18821;44.800;10.326;2023-04-16T02:02:43;5.70;;;3.55;;
32347;SDS011;18821;44.800;10.326;2023-04-16T02:05:13;7.47;;;4.25;;
32347;SDS011;18821;44.800;10.326;2023-04-16T02:07:39;9.27;;;4.88;;
32347;SDS011;18821;44.800;10.326;2023-04-16T02:10:05;8.23;;;4.88;;
32347;SDS011;18821;44.800;10.326;2023-04-16T02:12:33;10.10;;;4.20;;
32347;SDS011;18821;44.800;10.326;2023-04-16T02:14:59;8.82;;;4.38;;
32347;SDS011;18821;44.800;10.326;2023-04-16T02:17:27;11.00;;;4.05;;
32347;SDS011;18821;44.800;10.326;2023-04-16T02:20:05;9.05;;;3.95;;
32347;SDS011;18821;44.800;10.326;2023-04-16T02:22:36;11.95;;;3.90;;
32347;SDS011;18821;44.800;10.326;2023-04-16T02:25:03;9.98;;;3.80;;
32347;SDS011;18821;44.800;10.326;2023-04-16T02:27:29;11.15;;;3.92;;
32347;SDS011;18821;44.800;10.326;2023-04-16T02:30:04;9.35;;;4.30;;
32347;SDS011;18821;44.800;10.326;2023-04-16T02:32:32;12.02;;;4.07;;
32347;SDS011;18821;44.800;10.326;2023-04-16T02:34:59;12.50;;;4.10;;
32347;SDS011;18821;44.800;10.326;2023-04-16T02:37:24;9.30;;;3.65;;
32347;SDS011;18821;44.800;10.326;2023-04-16T02:39:51;8.77;;;3.58;;
32347;SDS011;18821;44.800;10.326;2023-04-16T02:42:18;5.93;;;3.72;;
32347;SDS011;18821;44.800;10.326;2023-04-16T02:44:44;12.27;;;4.30;;
32347;SDS011;18821;44.800;10.326;2023-04-16T02:47:11;7.78;;;3.70;;
32347;SDS011;18821;44.800;10.326;2023-04-16T02:49:36;8.35;;;4.10;;
32347;SDS011;18821;44.800;10.326;2023-04-16T02:52:02;10.73;;;4.47;;
32347;SDS011;18821;44.800;10.326;2023-04-16T02:54:28;9.05;;;3.92;;
32347;SDS011;18821;44.800;10.326;2023-04-16T02:56:54;10.00;;;4.22;;
32347;SDS011;18821;44.800;10.326;2023-04-16T02:59:21;8.60;;;3.65;;
32347;SDS011;18821;44.800;10.326;2023-04-16T03:01:46;9.25;;;3.95;;
32347;SDS011;18821;44.800;10.326;2023-04-16T03:04:12;12.70;;;4.50;;
32347;SDS011;18821;44.800;10.326;2023-04-16T03:06:38;9.95;;;4.18;;
32347;SDS011;18821;44.800;10.326;2023-04-16T03:09:04;9.13;;;3.97;;
32347;SDS011;18821;44.800;10.326;2023-04-16T03:11:30;16.88;;;5.38;;
32347;SDS011;18821;44.800;10.326;2023-04-16T03:13:56;9.68;;;4.40;;
32347;SDS011;18821;44.800;10.326;2023-04-16T03:16:22;9.43;;;4.13;;
32347;SDS011;18821;44.800;10.326;2023-04-16T03:18:48;17.38;;;4.90;;
32347;SDS011;18821;44.800;10.326;2023-04-16T03:21:15;8.88;;;4.57;;
32347;SDS011;18821;44.800;10.326;2023-04-16T03:23:41;7.32;;;3.42;;
32347;SDS011;18821;44.800;10.326;2023-04-16T03:26:07;7.93;;;3.90;;
32347;SDS011;18821;44.800;10.326;2023-04-16T03:28:33;7.53;;;4.20;;
32347;SDS011;18821;44.800;10.326;2023-04-16T03:30:59;7.72;;;3.97;;
32347;SDS011;18821;44.800;10.326;2023-04-16T03:33:25;7.03;;;4.03;;
32347;SDS011;18821;44.800;10.326;2023-04-16T03:35:55;7.97;;;4.15;;
32347;SDS011;18821;44.800;10.326;2023-04-16T03:38:23;7.30;;;4.22;;
32347;SDS011;18821;44.800;10.326;2023-04-16T03:40:53;10.15;;;4.50;;
32347;SDS011;18821;44.800;10.326;2023-04-16T03:43:19;8.10;;;3.90;;
32347;SDS011;18821;44.800;10.326;2023-04-16T03:45:45;10.02;;;3.97;;
32347;SDS011;18821;44.800;10.326;2023-04-16T03:48:12;9.50;;;4.18;;
32347;SDS011;18821;44.800;10.326;2023-04-16T03:50:38;11.77;;;4.70;;
32347;SDS011;18821;44.800;10.326;2023-04-16T03:53:06;16.75;;;7.40;;
32347;SDS011;18821;44.800;10.326;2023-04-16T03:55:33;11.50;;;6.28;;
32347;SDS011;18821;44.800;10.326;2023-04-16T03:58:00;13.27;;;5.05;;
32347;SDS011;18821;44.800;10.326;2023-04-16T04:00:28;11.32;;;4.55;;
32347;SDS011;18821;44.800;10.326;2023-04-16T04:03:02;5.20;;;3.97;;
32347;SDS011;18821;44.800;10.326;2023-04-16T04:05:28;12.68;;;4.70;;
32347;SDS011;18821;44.800;10.326;2023-04-16T04:07:54;10.68;;;4.53;;
32347;SDS011;18821;44.800;10.326;2023-04-16T04:10:21;8.73;;;4.53;;
32347;SDS011;18821;44.800;10.326;2023-04-16T04:12:47;11.32;;;4.72;;
32347;SDS011;18821;44.800;10.326;2023-04-16T04:15:13;10.15;;;4.90;;
32347;SDS011;18821;44.800;10.326;2023-04-16T04:17:40;7.63;;;3.92;;
32347;SDS011;18821;44.800;10.326;2023-04-16T04:20:06;10.27;;;3.60;;
32347;SDS011;18821;44.800;10.326;2023-04-16T04:22:33;10.90;;;4.03;;
32347;SDS011;18821;44.800;10.326;2023-04-16T04:24:59;7.60;;;3.63;;
32347;SDS011;18821;44.800;10.326;2023-04-16T04:27:27;9.75;;;4.70;;
32347;SDS011;18821;44.800;10.326;2023-04-16T04:29:53;12.45;;;4.10;;
32347;SDS011;18821;44.800;10.326;2023-04-16T04:32:20;9.60;;;4.07;;
32347;SDS011;18821;44.800;10.326;2023-04-16T04:34:47;12.68;;;4.50;;
32347;SDS011;18821;44.800;10.326;2023-04-16T04:37:14;7.43;;;4.10;;
32347;SDS011;18821;44.800;10.326;2023-04-16T04:39:40;9.48;;;4.18;;
32347;SDS011;18821;44.800;10.326;2023-04-16T04:42:06;13.70;;;5.07;;
32347;SDS011;18821;44.800;10.326;2023-04-16T04:44:32;10.65;;;4.07;;
32347;SDS011;18821;44.800;10.326;2023-04-16T04:46:58;9.93;;;4.63;;
32347;SDS011;18821;44.800;10.326;2023-04-16T04:49:24;8.68;;;4.10;;
32347;SDS011;18821;44.800;10.326;2023-04-16T04:51:51;7.53;;;3.72;;
32347;SDS011;18821;44.800;10.326;2023-04-16T04:54:18;9.88;;;4.07;;
32347;SDS011;18821;44.800;10.326;2023-04-16T04:56:44;16.23;;;4.15;;
32347;SDS011;18821;44.800;10.326;2023-04-16T04:59:12;9.07;;;3.95;;
32347;SDS011;18821;44.800;10.326;2023-04-16T05:01:38;8.05;;;4.07;;
32347;SDS011;18821;44.800;10.326;2023-04-16T05:04:04;8.48;;;3.95;;
32347;SDS011;18821;44.800;10.326;2023-04-16T05:06:30;10.88;;;4.10;;
32347;SDS011;18821;44.800;10.326;2023-04-16T05:08:56;10.35;;;3.50;;
32347;SDS011;18821;44.800;10.326;2023-04-16T05:11:22;7.90;;;3.95;;
32347;SDS011;18821;44.800;10.326;2023-04-16T05:13:48;8.88;;;3.65;;
32347;SDS011;18821;44.800;10.326;2023-04-16T05:16:14;6.93;;;3.50;;
32347;SDS011;18821;44.800;10.326;2023-04-16T05:18:40;15.07;;;3.92;;
32347;SDS011;18821;44.800;10.326;2023-04-16T05:21:06;10.00;;;3.60;;
32347;SDS011;18821;44.800;10.326;2023-04-16T05:23:32;9.98;;;3.85;;
32347;SDS011;18821;44.800;10.326;2023-04-16T05:25:57;10.65;;;3.63;;
32347;SDS011;18821;44.800;10.326;2023-04-16T05:28:23;9.27;;;3.08;;
32347;SDS011;18821;44.800;10.326;2023-04-16T05:30:49;7.80;;;3.67;;
32347;SDS011;18821;44.800;10.326;2023-04-16T05:33:15;8.30;;;4.05;;
32347;SDS011;18821;44.800;10.326;2023-04-16T05:35:41;8.35;;;3.33;;
32347;SDS011;18821;44.800;10.326;2023-04-16T05:38:07;10.10;;;3.13;;
32347;SDS011;18821;44.800;10.326;2023-04-16T05:40:33;7.88;;;3.60;;
32347;SDS011;18821;44.800;10.326;2023-04-16T05:42:59;10.80;;;3.42;;
32347;SDS011;18821;44.800;10.326;2023-04-16T05:45:25;11.73;;;3.85;;
32347;SDS011;18821;44.800;10.326;2023-04-16T05:47:51;12.43;;;4.15;;
32347;SDS011;18821;44.800;10.326;2023-04-16T05:50:16;13.73;;;3.88;;
32347;SDS011;18821;44.800;10.326;2023-04-16T05:52:42;12.98;;;4.05;;
32347;SDS011;18821;44.800;10.326;2023-04-16T05:55:08;7.25;;;3.35;;
32347;SDS011;18821;44.800;10.326;2023-04-16T05:57:34;6.80;;;3.17;;
32347;SDS011;18821;44.800;10.326;2023-04-16T06:00:00;10.07;;;4.03;;
32347;SDS011;18821;44.800;10.326;2023-04-16T06:02:26;15.82;;;3.45;;
32347;SDS011;18821;44.800;10.326;2023-04-16T06:04:52;8.68;;;3.40;;
32347;SDS011;18821;44.800;10.326;2023-04-16T06:07:18;12.40;;;3.58;;
32347;SDS011;18821;44.800;10.326;2023-04-16T06:09:44;7.90;;;3.28;;
32347;SDS011;18821;44.800;10.326;2023-04-16T06:12:09;9.52;;;3.20;;
32347;SDS011;18821;44.800;10.326;2023-04-16T06:14:36;10.77;;;3.00;;
32347;SDS011;18821;44.800;10.326;2023-04-16T06:17:01;10.38;;;3.08;;
32347;SDS011;18821;44.800;10.326;2023-04-16T06:19:27;9.02;;;2.97;;
32347;SDS011;18821;44.800;10.326;2023-04-16T06:21:53;9.70;;;3.15;;
32347;SDS011;18821;44.800;10.326;2023-04-16T06:24:19;8.70;;;2.72;;
32347;SDS011;18821;44.800;10.326;2023-04-16T06:26:45;6.82;;;3.40;;
32347;SDS011;18821;44.800;10.326;2023-04-16T06:29:11;10.48;;;3.22;;
32347;SDS011;18821;44.800;10.326;2023-04-16T06:31:37;10.95;;;2.97;;
32347;SDS011;18821;44.800;10.326;2023-04-16T06:34:03;9.40;;;3.65;;
32347;SDS011;18821;44.800;10.326;2023-04-16T06:36:29;10.65;;;3.45;;
32347;SDS011;18821;44.800;10.326;2023-04-16T06:38:55;10.57;;;3.20;;
32347;SDS011;18821;44.800;10.326;2023-04-16T06:41:21;11.00;;;3.17;;
32347;SDS011;18821;44.800;10.326;2023-04-16T06:43:49;10.88;;;3.28;;
32347;SDS011;18821;44.800;10.326;2023-04-16T06:46:15;8.20;;;3.10;;
32347;SDS011;18821;44.800;10.326;2023-04-16T06:48:41;10.48;;;3.05;;
32347;SDS011;18821;44.800;10.326;2023-04-16T06:51:07;12.10;;;3.20;;
32347;SDS011;18821;44.800;10.326;2023-04-16T06:53:33;9.55;;;2.88;;
32347;SDS011;18821;44.800;10.326;2023-04-16T06:56:01;9.40;;;2.72;;
32347;SDS011;18821;44.800;10.326;2023-04-16T06:58:27;8.95;;;2.80;;
32347;SDS011;18821;44.800;10.326;2023-04-16T07:00:53;9.23;;;3.22;;
32347;SDS011;18821;44.800;10.326;2023-04-16T07:03:19;11.50;;;3.42;;
32347;SDS011;18821;44.800;10.326;2023-04-16T07:05:45;8.65;;;3.17;;
32347;SDS011;18821;44.800;10.326;2023-04-16T07:08:11;7.65;;;3.58;;
32347;SDS011;18821;44.800;10.326;2023-04-16T07:10:36;11.88;;;3.58;;
32347;SDS011;18821;44.800;10.326;2023-04-16T07:13:02;10.65;;;3.20;;
32347;SDS011;18821;44.800;10.326;2023-04-16T07:15:28;5.97;;;2.83;;
32347;SDS011;18821;44.800;10.326;2023-04-16T07:17:54;10.30;;;3.00;;
32347;SDS011;18821;44.800;10.326;2023-04-16T07:20:20;12.50;;;4.40;;
32347;SDS011;18821;44.800;10.326;2023-04-16T07:22:46;12.45;;;3.45;;
32347;SDS011;18821;44.800;10.326;2023-04-16T07:25:12;7.00;;;3.10;;
32347;SDS011;18821;44.800;10.326;2023-04-16T07:27:38;13.95;;;3.72;;
32347;SDS011;18821;44.800;10.326;2023-04-16T07:30:04;12.88;;;3.80;;
32347;SDS011;18821;44.800;10.326;2023-04-16T07:32:31;15.85;;;3.60;;
32347;SDS011;18821;44.800;10.326;2023-04-16T07:34:57;12.10;;;4.03;;
32347;SDS011;18821;44.800;10.326;2023-04-16T07:37:23;10.27;;;3.38;;
32347;SDS011;18821;44.800;10.326;2023-04-16T07:39:49;16.30;;;3.83;;
32347;SDS011;18821;44.800;10.326;2023-04-16T07:42:16;9.10;;;2.95;;
32347;SDS011;18821;44.800;10.326;2023-04-16T07:44:41;12.00;;;2.97;;
32347;SDS011;18821;44.800;10.326;2023-04-16T07:47:08;13.32;;;3.33;;
32347;SDS011;18821;44.800;10.326;2023-04-16T07:49:34;14.52;;;3.83;;
32347;SDS011;18821;44.800;10.326;2023-04-16T07:52:00;8.68;;;3.20;;
32347;SDS011;18821;44.800;10.326;2023-04-16T07:54:26;12.57;;;3.40;;
32347;SDS011;18821;44.800;10.326;2023-04-16T07:56:52;13.80;;;3.38;;
32347;SDS011;18821;44.800;10.326;2023-04-16T07:59:18;11.43;;;3.70;;
32347;SDS011;18821;44.800;10.326;2023-04-16T08:01:43;12.85;;;2.92;;
32347;SDS011;18821;44.800;10.326;2023-04-16T08:04:09;9.45;;;3.20;;
32347;SDS011;18821;44.800;10.326;2023-04-16T08:06:35;10.70;;;3.10;;
32347;SDS011;18821;44.800;10.326;2023-04-16T08:09:01;13.35;;;3.78;;
32347;SDS011;18821;44.800;10.326;2023-04-16T08:11:27;10.52;;;3.38;;
32347;SDS011;18821;44.800;10.326;2023-04-16T08:13:53;11.90;;;3.40;;
32347;SDS011;18821;44.800;10.326;2023-04-16T08:16:19;9.45;;;3.53;;
32347;SDS011;18821;44.800;10.326;2023-04-16T08:18:45;8.00;;;3.28;;
32347;SDS011;18821;44.800;10.326;2023-04-16T08:21:11;13.63;;;3.58;;
32347;SDS011;18821;44.800;10.326;2023-04-16T08:23:37;8.10;;;3.30;;
32347;SDS011;18821;44.800;10.326;2023-04-16T08:26:03;9.85;;;3.22;;
32347;SDS011;18821;44.800;10.326;2023-04-16T08:28:29;12.23;;;3.70;;
32347;SDS011;18821;44.800;10.326;2023-04-16T08:30:56;16.73;;;3.63;;
32347;SDS011;18821;44.800;10.326;2023-04-16T08:33:22;9.65;;;3.33;;
32347;SDS011;18821;44.800;10.326;2023-04-16T08:35:48;5.70;;;2.80;;
32347;SDS011;18821;44.800;10.326;2023-04-16T08:38:14;14.40;;;3.20;;
32347;SDS011;18821;44.800;10.326;2023-04-16T08:40:40;7.13;;;3.13;;
32347;SDS011;18821;44.800;10.326;2023-04-16T08:43:10;6.93;;;2.40;;
32347;SDS011;18821;44.800;10.326;2023-04-16T08:45:39;8.80;;;2.58;;
32347;SDS011;18821;44.800;10.326;2023-04-16T08:48:06;7.13;;;2.60;;
32347;SDS011;18821;44.800;10.326;2023-04-16T08:50:32;8.77;;;3.58;;
32347;SDS011;18821;44.800;10.326;2023-04-16T08:53:01;10.10;;;2.40;;
32347;SDS011;18821;44.800;10.326;2023-04-16T08:58:04;6.38;;;2.05;;
32347;SDS011;18821;44.800;10.326;2023-04-16T09:03:04;9.68;;;2.50;;
32347;SDS011;18821;44.800;10.326;2023-04-16T09:05:30;11.77;;;4.32;;
32347;SDS011;18821;44.800;10.326;2023-04-16T09:07:58;8.73;;;2.72;;
32347;SDS011;18821;44.800;10.326;2023-04-16T09:10:27;8.35;;;2.70;;
32347;SDS011;18821;44.800;10.326;2023-04-16T09:12:54;9.65;;;2.85;;
32347;SDS011;18821;44.800;10.326;2023-04-16T09:15:21;8.55;;;2.95;;
32347;SDS011;18821;44.800;10.326;2023-04-16T09:17:47;6.30;;;2.75;;
32347;SDS011;18821;44.800;10.326;2023-04-16T09:20:13;9.90;;;3.03;;
32347;SDS011;18821;44.800;10.326;2023-04-16T09:22:40;6.50;;;2.55;;
32347;SDS011;18821;44.800;10.326;2023-04-16T09:25:08;11.32;;;3.63;;
32347;SDS011;18821;44.800;10.326;2023-04-16T09:27:35;7.43;;;2.25;;
32347;SDS011;18821;44.800;10.326;2023-04-16T09:30:17;9.75;;;2.92;;
32347;SDS011;18821;44.800;10.326;2023-04-16T09:32:46;5.65;;;2.88;;
32347;SDS011;18821;44.800;10.326;2023-04-16T09:35:12;5.72;;;2.20;;
32347;SDS011;18821;44.800;10.326;2023-04-16T09:37:40;7.60;;;2.65;;
32347;SDS011;18821;44.800;10.326;2023-04-16T09:40:06;8.75;;;2.20;;
32347;SDS011;18821;44.800;10.326;2023-04-16T09:42:33;5.68;;;2.28;;
32347;SDS011;18821;44.800;10.326;2023-04-16T09:45:01;8.82;;;2.60;;
32347;SDS011;18821;44.800;10.326;2023-04-16T09:47:38;7.20;;;2.22;;
32347;SDS011;18821;44.800;10.326;2023-04-16T09:50:06;4.22;;;2.22;;
32347;SDS011;18821;44.800;10.326;2023-04-16T09:52:35;5.32;;;3.08;;
32347;SDS011;18821;44.800;10.326;2023-04-16T09:55:04;3.72;;;2.10;;
32347;SDS011;18821;44.800;10.326;2023-04-16T09:57:30;4.43;;;1.92;;
32347;SDS011;18821;44.800;10.326;2023-04-16T10:00:00;7.55;;;2.28;;
32347;SDS011;18821;44.800;10.326;2023-04-16T10:02:30;5.88;;;2.03;;
32347;SDS011;18821;44.800;10.326;2023-04-16T10:04:59;5.05;;;1.50;;
32347;SDS011;18821;44.800;10.326;2023-04-16T10:07:27;1.83;;;1.10;;
32347;SDS011;18821;44.800;10.326;2023-04-16T10:09:54;2.03;;;1.00;;
32347;SDS011;18821;44.800;10.326;2023-04-16T10:12:20;5.63;;;1.40;;
32347;SDS011;18821;44.800;10.326;2023-04-16T10:14:46;4.57;;;1.58;;
32347;SDS011;18821;44.800;10.326;2023-04-16T10:17:12;6.53;;;2.72;;
32347;SDS011;18821;44.800;10.326;2023-04-16T10:19:40;3.63;;;1.90;;
32347;SDS011;18821;44.800;10.326;2023-04-16T10:22:06;5.40;;;1.95;;
32347;SDS011;18821;44.800;10.326;2023-04-16T10:24:32;5.72;;;1.20;;
32347;SDS011;18821;44.800;10.326;2023-04-16T10:26:59;4.93;;;1.20;;
32347;SDS011;18821;44.800;10.326;2023-04-16T10:29:26;2.47;;;1.33;;
32347;SDS011;18821;44.800;10.326;2023-04-16T10:31:53;7.50;;;2.03;;
32347;SDS011;18821;44.800;10.326;2023-04-16T10:34:21;5.50;;;1.25;;
32347;SDS011;18821;44.800;10.326;2023-04-16T10:36:51;2.95;;;1.02;;
32347;SDS011;18821;44.800;10.326;2023-04-16T10:39:22;3.88;;;1.48;;
32347;SDS011;18821;44.800;10.326;2023-04-16T10:41:49;4.68;;;1.75;;
32347;SDS011;18821;44.800;10.326;2023-04-16T10:44:17;4.85;;;1.73;;
32347;SDS011;18821;44.800;10.326;2023-04-16T10:46:47;5.30;;;1.92;;
32347;SDS011;18821;44.800;10.326;2023-04-16T10:51:51;3.20;;;1.50;;
32347;SDS011;18821;44.800;10.326;2023-04-16T10:54:19;4.50;;;1.52;;
32347;SDS011;18821;44.800;10.326;2023-04-16T10:56:45;2.75;;;1.52;;
32347;SDS011;18821;44.800;10.326;2023-04-16T10:59:12;4.15;;;1.58;;
32347;SDS011;18821;44.800;10.326;2023-04-16T11:01:43;4.32;;;1.40;;
32347;SDS011;18821;44.800;10.326;2023-04-16T11:12:25;2.08;;;1.40;;
32347;SDS011;18821;44.800;10.326;2023-04-16T11:15:05;4.25;;;1.38;;
32347;SDS011;18821;44.800;10.326;2023-04-16T11:20:09;4.70;;;1.25;;
32347;SDS011;18821;44.800;10.326;2023-04-16T11:22:53;6.30;;;1.55;;
32347;SDS011;18821;44.800;10.326;2023-04-16T11:25:24;5.43;;;1.50;;
32347;SDS011;18821;44.800;10.326;2023-04-16T11:27:54;3.70;;;1.50;;
32347;SDS011;18821;44.800;10.326;2023-04-16T11:30:28;3.10;;;1.55;;
32347;SDS011;18821;44.800;10.326;2023-04-16T11:32:59;4.55;;;1.40;;
32347;SDS011;18821;44.800;10.326;2023-04-16T11:35:30;4.35;;;1.20;;
32347;SDS011;18821;44.800;10.326;2023-04-16T11:37:56;3.22;;;1.40;;
32347;SDS011;18821;44.800;10.326;2023-04-16T11:40:23;4.40;;;1.48;;
32347;SDS011;18821;44.800;10.326;2023-04-16T11:42:49;3.35;;;1.38;;
32347;SDS011;18821;44.800;10.326;2023-04-16T11:45:15;5.13;;;1.38;;
32347;SDS011;18821;44.800;10.326;2023-04-16T11:47:44;3.40;;;1.33;;
32347;SDS011;18821;44.800;10.326;2023-04-16T11:50:29;2.80;;;1.63;;
32347;SDS011;18821;44.800;10.326;2023-04-16T11:52:56;4.72;;;1.83;;
32347;SDS011;18821;44.800;10.326;2023-04-16T11:55:27;4.32;;;1.50;;
32347;SDS011;18821;44.800;10.326;2023-04-16T11:57:53;4.05;;;1.60;;
32347;SDS011;18821;44.800;10.326;2023-04-16T12:00:19;3.45;;;1.30;;
32347;SDS011;18821;44.800;10.326;2023-04-16T12:02:50;3.28;;;1.20;;
32347;SDS011;18821;44.800;10.326;2023-04-16T12:07:52;1.73;;;1.00;;
32347;SDS011;18821;44.800;10.326;2023-04-16T12:10:19;7.78;;;1.50;;
32347;SDS011;18821;44.800;10.326;2023-04-16T12:12:45;4.63;;;1.25;;
32347;SDS011;18821;44.800;10.326;2023-04-16T12:15:11;2.38;;;1.20;;
32347;SDS011;18821;44.800;10.326;2023-04-16T12:17:37;3.38;;;1.38;;
32347;SDS011;18821;44.800;10.326;2023-04-16T12:20:07;4.38;;;1.17;;
32347;SDS011;18821;44.800;10.326;2023-04-16T12:22:47;1.88;;;1.02;;
32347;SDS011;18821;44.800;10.326;2023-04-16T12:25:14;2.08;;;1.20;;
32347;SDS011;18821;44.800;10.326;2023-04-16T12:30:20;1.95;;;0.95;;
32347;SDS011;18821;44.800;10.326;2023-04-16T12:32:48;3.08;;;1.23;;
32347;SDS011;18821;44.800;10.326;2023-04-16T12:35:28;2.33;;;0.82;;
32347;SDS011;18821;44.800;10.326;2023-04-16T12:37:55;1.90;;;1.30;;
32347;SDS011;18821;44.800;10.326;2023-04-16T12:40:22;3.70;;;1.48;;
32347;SDS011;18821;44.800;10.326;2023-04-16T12:42:48;3.22;;;1.00;;
32347;SDS011;18821;44.800;10.326;2023-04-16T12:45:14;5.07;;;0.90;;
32347;SDS011;18821;44.800;10.326;2023-04-16T12:47:40;1.23;;;0.60;;
32347;SDS011;18821;44.800;10.326;2023-04-16T12:50:07;1.50;;;0.60;;
32347;SDS011;18821;44.800;10.326;2023-04-16T12:52:33;3.75;;;0.75;;
32347;SDS011;18821;44.800;10.326;2023-04-16T12:55:03;3.50;;;1.25;;
32347;SDS011;18821;44.800;10.326;2023-04-16T12:57:29;4.20;;;0.80;;
32347;SDS011;18821;44.800;10.326;2023-04-16T12:59:55;3.78;;;0.85;;
32347;SDS011;18821;44.800;10.326;2023-04-16T13:02:22;1.33;;;0.77;;
32347;SDS011;18821;44.800;10.326;2023-04-16T13:04:49;6.40;;;0.90;;
32347;SDS011;18821;44.800;10.326;2023-04-16T13:07:19;1.98;;;0.73;;
32347;SDS011;18821;44.800;10.326;2023-04-16T13:09:45;1.33;;;0.60;;
32347;SDS011;18821;44.800;10.326;2023-04-16T13:12:11;2.03;;;0.65;;
32347;SDS011;18821;44.800;10.326;2023-04-16T13:14:37;1.73;;;0.73;;
32347;SDS011;18821;44.800;10.326;2023-04-16T13:17:03;2.15;;;0.80;;
32347;SDS011;18821;44.800;10.326;2023-04-16T13:19:30;3.33;;;0.80;;
32347;SDS011;18821;44.800;10.326;2023-04-16T13:21:56;1.42;;;0.70;;
32347;SDS011;18821;44.800;10.326;2023-04-16T13:24:23;2.35;;;0.80;;
32347;SDS011;18821;44.800;10.326;2023-04-16T13:26:50;1.55;;;0.65;;
32347;SDS011;18821;44.800;10.326;2023-04-16T13:29:18;5.32;;;0.70;;
32347;SDS011;18821;44.800;10.326;2023-04-16T13:31:45;1.02;;;0.60;;
32347;SDS011;18821;44.800;10.326;2023-04-16T13:34:11;0.98;;;0.40;;
32347;SDS011;18821;44.800;10.326;2023-04-16T13:36:37;1.95;;;1.00;;
32347;SDS011;18821;44.800;10.326;2023-04-16T13:39:03;2.58;;;0.50;;
32347;SDS011;18821;44.800;10.326;2023-04-16T13:41:35;0.88;;;0.55;;
32347;SDS011;18821;44.800;10.326;2023-04-16T13:44:01;1.45;;;0.60;;
32347;SDS011;18821;44.800;10.326;2023-04-16T13:46:27;5.57;;;0.85;;
32347;SDS011;18821;44.800;10.326;2023-04-16T13:48:53;8.48;;;1.10;;
32347;SDS011;18821;44.800;10.326;2023-04-16T13:51:20;1.90;;;0.70;;
32347;SDS011;18821;44.800;10.326;2023-04-16T13:53:46;2.35;;;0.52;;
32347;SDS011;18821;44.800;10.326;2023-04-16T13:56:12;1.20;;;0.57;;
32347;SDS011;18821;44.800;10.326;2023-04-16T13:58:38;8.88;;;0.50;;
32347;SDS011;18821;44.800;10.326;2023-04-16T14:01:05;0.68;;;0.40;;
32347;SDS011;18821;44.800;10.326;2023-04-16T14:03:32;1.42;;;0.60;;
32347;SDS011;18821;44.800;10.326;2023-04-16T14:06:03;0.65;;;0.47;;
32347;SDS011;18821;44.800;10.326;2023-04-16T14:08:29;1.67;;;0.65;;
32347;SDS011;18821;44.800;10.326;2023-04-16T14:10:56;1.88;;;0.57;;
32347;SDS011;18821;44.800;10.326;2023-04-16T14:13:22;2.65;;;0.68;;
32347;SDS011;18821;44.800;10.326;2023-04-16T14:15:49;0.80;;;0.52;;
32347;SDS011;18821;44.800;10.326;2023-04-16T14:18:17;1.05;;;0.65;;
32347;SDS011;18821;44.800;10.326;2023-04-16T14:20:43;1.67;;;0.90;;
32347;SDS011;18821;44.800;10.326;2023-04-16T14:23:09;1.38;;;0.80;;
32347;SDS011;18821;44.800;10.326;2023-04-16T14:25:36;2.67;;;0.90;;
32347;SDS011;18821;44.800;10.326;2023-04-16T14:28:02;1.23;;;0.50;;
32347;SDS011;18821;44.800;10.326;2023-04-16T14:30:28;2.00;;;0.77;;
32347;SDS011;18821;44.800;10.326;2023-04-16T14:32:54;1.02;;;0.60;;
32347;SDS011;18821;44.800;10.326;2023-04-16T14:35:23;1.08;;;0.80;;
32347;SDS011;18821;44.800;10.326;2023-04-16T14:37:49;0.80;;;0.70;;
32347;SDS011;18821;44.800;10.326;2023-04-16T14:40:15;1.67;;;0.68;;
32347;SDS011;18821;44.800;10.326;2023-04-16T14:42:41;2.63;;;0.65;;
32347;SDS011;18821;44.800;10.326;2023-04-16T14:45:07;0.85;;;0.55;;
32347;SDS011;18821;44.800;10.326;2023-04-16T14:47:33;3.65;;;0.70;;
32347;SDS011;18821;44.800;10.326;2023-04-16T14:50:00;2.85;;;0.70;;
32347;SDS011;18821;44.800;10.326;2023-04-16T14:52:26;3.33;;;0.60;;
32347;SDS011;18821;44.800;10.326;2023-04-16T14:54:53;3.15;;;0.90;;